Hauptseite
METAR-TAF:

METAR-TAF

Flughäfen :

Oberpfaffenhofen, Deutschland

Breite: 48-05N, Länge: 011-17E, Höhe: 600 m

Beobachtung

Neuester Wetterbericht von vor 8 Stunden und 35 Minuten, um 17:20 UTC
Windstille
Temperatur 14°C
Luftfeuchtigkeit 77%
Luftdruck 1027 hPa
Sichtweite 10 km oder mehr
keine Wolken unter 1500 m und keine Kumulonimbus oder Gewitterwolken

METAR: EDMO 161720Z 00000KT CAVOK 14/10 Q1027

Zeit: 03:55 (01:55 UTC)

Prognose

Neuester Wetterbericht von vor 8 Stunden und 55 Minuten, um 17:00 UTC
Gültige Prognose vom 16 um 18 UTC bis 17 um 03 UTC
Wind 3 kt aus unterschiedlichen Richtungen
Sichtweite 10 km oder mehr
keine Wolken unter 1500 m und keine Kumulonimbus oder Gewitterwolken
Wahrscheinlichkeit 30% :
Zeitweise
vom 17 um 00 UTC bis 17 um 03 UTC
Sichtweite: 2500 m
Nebelschwaden

TAF: EDMO 161700Z 1618/1703 VRB03KT CAVOK PROB30 TEMPO 1700/1703 2500 BCFG

Wetterbeobachtungen und Prognosen von mehr als 4000 Flughäfen (METAR und TAF Bericht).

Die verfügbaren Stationen werden durch gelbe und rote Markierungen auf der Karte dargestellt.

Führen Sie die Maus auf sie, um den Namen der Station zu sehen.

Darauf klicken, um die Beobachtung von Wetterbeobachtungen und Prognosen zu sehen.

Um die Karte zu ändern : klicken Sie auf den grünen Tasten mit einem schwarzen Kreuz Zum Vergrößern, auf den grünen Button mit einem Gedankenstrich zu verkleinern, oder auf die grünen Pfeile für benachbarte Karten.


METAR-TAF: